North Chili, NY (14514)

7:03 AM EDT on October 01, 2014 (GMT -0400)
Black Creek | Change Station
CLOSE
Current Station
Personal Weather Station
Location: N Chili, NY
Elevation: 570 ft
Nearby Weather Stations

Elev 570 ft 43.08 °N, 77.79 °W | Updated 14 minutes ago

Overcast
Overcast
60.4 °F
Feels Like 60.4 °F
N
0.0
Wind Variable Wind from NE
Gusts 3.0 mph

Today
High -- | Low -- °F
--% Chance of Precip.
Yesterday
High -- | Low -- °F
Precip. -- in
7:08 AM 6:52 PM
Waxing Crescent, 46% visible
Pressure 30.03 in
Visibility 5.0 miles
Clouds Overcast 500 ft
Dew Point 59 °F
Humidity 96%
Rainfall 0.00 in
Snow Depth Not available.
UV 0 out of 12
Pollen 1.30 out of 12
Air Quality Not available.
Flu Activity Not available.
METAR KROC 010954Z 02006KT 5SM BR OVC005 16/15 A3002 RMK AO2 SLP169 T01610150

More Conditions Fewer Conditions

Pressure 30.03 in
Visibility 5.0 miles
Clouds Overcast 500 ft
Dew Point 59 °F
Humidity 96%
Rainfall 0.00 in
Snow Depth Not available.
UV 0 out of 12
Pollen 1.30 out of 12
Air Quality Not available.
Flu Activity Not available.
METAR KROC 010954Z 02006KT 5SM BR OVC005 16/15 A3002 RMK AO2 SLP169 T01610150

More Conditions Fewer Conditions

10-Day Weather Forecast

Almanac

Astronomy

Oct. 01, 2014 Rise Set
Actual Time 7:08 AM EDT 6:52 PM EDT
Civil Twilight 6:40 AM EDT 7:20 PM EDT
Nautical Twilight 6:07 AM EDT 7:53 PM EDT
Astronomical Twilight 5:33 AM EDT 8:26 PM EDT
Moon 2:14 PM EDT No Moon Set
Length of Visible Light 12h 40m
Length of Day
11h 43m
Tomorrow will be 2m 55s shorter.
Waxing Crescent, 46% of the Moon is Illuminated
Today
Waxing Crescent
Oct 1
First Quarter
Oct 8
Full
Oct 15
Last Quarter
Oct 23
New

Today's Extremes

State Highs State Lows

Community

WunderPhotos

Upload Photos

1,757,910 photos uploaded!

WunderBlogs® & News

Nearby

Air Quality

  Air Quality AQ Index Pollutant
Wednesday Good
PM2.5

Snow Depth

Station Depth Elevation
No new snow has been reported.

Earthquake Activity

City Distance Mag. Time & Date
No recent earthquake activity has been reported nearby.
Minimum magnitude displayed is 2.5.

Coastal Water Temperatures

Place Temperature
Buffalo, NY 66.9 °F
Alexandria Bay, NY 64.9 °F

Nearby Weather Stations